Qulin, MO (63938)

6:21 PM CDT on July 25, 2016 (GMT -0500)
Inman Acres | | Change Station

Elev 341 ft 36.76 °N, 90.34 °W | Updated 21 seconds ago

Clear
Clear
81.0 °F
Feels Like 88 °F
N
0.0
Wind Variable Wind from NW
Gusts 0.0 mph

Today
High -- | Low -- °F
--% Chance of Precip.
Yesterday
High -- | Low -- °F
Precip. -- in
Pressure 29.94 in
Visibility 10.0 miles
Clouds Clear
Heat Index 88 °F
Dew Point 77 °F
Humidity 87%
Rainfall 0.27 in
Snow Depth Not available.
6:01 AM 8:12 PM
Waning Gibbous, 61% visible
METAR KPOF 252253Z AUTO 06003KT 10SM CLR 28/24 A2995 RMK AO2 SLP136 T02780244 TSNO
Pressure 29.94 in
Visibility 10.0 miles
Clouds Clear
Heat Index 88 °F
Dew Point 77 °F
Humidity 87%
Rainfall 0.27 in
Snow Depth Not available.
6:01 AM 8:12 PM
Waning Gibbous, 61% visible
METAR KPOF 252253Z AUTO 06003KT 10SM CLR 28/24 A2995 RMK AO2 SLP136 T02780244 TSNO
Record highs are possible for parts of the Northeast Monday and Tuesday, as parts of the central U.S. take a little breather from the worst of summer's dog day heat.

Expansive high pressure in the upper atmosphere will focus on parts of the East and West this week, sending heat indices well into the triple digits from the Mid-Atlantic states into the South.

10-Day Weather Forecast

Almanac

Astronomy

Jul. 25, 2016 Rise Set
Actual Time
Civil Twilight
Nautical Twilight
Astronomical Twilight
Moon
Length of Visible Light
Length of Day
Tomorrow will be .
, % of the Moon is Illuminated

Today's Extremes

State Highs State Lows

Community

WunderPhotos

Upload Photos

1,927,444 photos uploaded!

WunderBlog® & News

Nearby

Air Quality

  Air Quality AQ Index Pollutant
Not available.

Snow Depth

Station Depth Elevation

Earthquake Activity

City Distance Mag. Time & Date
Minimum magnitude displayed is 2.5.

Coastal Water Temperatures

Place Temperature

Stations

Nearby Weather Stations

Station Location Temp. Windchill Dew Point Humidity Wind Precip. Elev Updated Type
                   

Watches & Warnings

There are currently no watches in effect.